Time;durP1;ratioP1;P1;durP2;ratioP2;P2;SDS_P1;SDS_P2;PMS_P1;PMS_P2;Temp;Humidity;BMP_temperature;BMP_pressure;BME280_temperature;BME280_humidity;BME280_pressure;Samples;Min_cycle;Max_cycle;Signal;HPM_P1;HPM_P2
2022/09/04 00:00:13;;;;;;;6.43;1.40;;;17.50;84.20;;;;;;5013306;28;20052;-85
2022/09/04 00:03:14;;;;;;;4.82;1.60;;;17.50;84.40;;;;;;5012745;28;20050;-82
2022/09/04 00:06:04;;;;;;;5.18;1.35;;;17.50;84.90;;;;;;5015872;28;20046;-82
2022/09/04 00:09:18;;;;;;;6.28;1.55;;;17.40;85.20;;;;;;5035820;28;20095;-85
2022/09/04 00:12:07;;;;;;;3.42;1.40;;;17.40;85.40;;;;;;5033335;28;20053;-82
2022/09/04 00:15:23;;;;;;;6.57;1.20;;;17.30;85.70;;;;;;5032336;28;20063;-88
2022/09/04 00:18:16;;;;;;;5.60;1.60;;;17.30;86.10;;;;;;5031938;28;20124;-84
2022/09/04 00:21:20;;;;;;;5.15;1.70;;;17.20;86.30;;;;;;5030830;28;20053;-88
2022/09/04 00:24:20;;;;;;;6.03;1.67;;;17.10;86.60;;;;;;5013798;28;20053;-83
2022/09/04 00:27:18;;;;;;;6.30;1.40;;;17.10;86.80;;;;;;5012573;28;20052;-80
2022/09/04 00:30:07;;;;;;;3.90;1.25;;;17.00;87.00;;;;;;5031208;28;20102;-80
2022/09/04 00:32:59;;;;;;;4.63;1.30;;;17.00;87.10;;;;;;5002846;28;20052;-83
2022/09/04 00:35:54;;;;;;;2.83;1.25;;;17.00;87.10;;;;;;5033607;28;20449;-83
2022/09/04 00:38:56;;;;;;;3.10;1.30;;;16.90;87.30;;;;;;5033092;28;20045;-82
2022/09/04 00:42:04;;;;;;;4.68;1.60;;;16.90;87.60;;;;;;5034138;28;20299;-81
2022/09/04 00:45:35;;;;;;;6.13;1.80;;;16.90;88.10;;;;;;5035886;28;20529;-85
2022/09/04 00:48:42;;;;;;;4.43;1.27;;;16.80;88.30;;;;;;5004007;28;20133;-87
2022/09/04 00:51:38;;;;;;;6.00;1.23;;;16.70;88.50;;;;;;5034810;28;20080;-85
2022/09/04 00:54:44;;;;;;;3.92;1.25;;;16.70;88.60;;;;;;5033699;28;20109;-81
2022/09/04 00:57:45;;;;;;;;;;;16.70;88.80;;;;;;5050110;28;20053;-82
2022/09/04 01:00:31;;;;;;;5.63;1.38;;;16.60;89.20;;;;;;5030341;28;20026;-84
2022/09/04 01:03:32;;;;;;;6.25;1.40;;;16.60;88.80;;;;;;5012367;28;20528;-84
2022/09/04 01:06:45;;;;;;;5.95;1.45;;;16.60;89.00;;;;;;5031125;28;20051;-85
2022/09/04 01:09:41;;;;;;;4.68;1.27;;;16.60;89.50;;;;;;5029894;28;20049;-81
2022/09/04 01:13:00;;;;;;;3.78;1.40;;;16.50;89.60;;;;;;5032599;28;20095;-81
2022/09/04 01:16:18;;;;;;;5.13;2.08;;;16.50;89.70;;;;;;5015878;28;20057;-81
2022/09/04 01:19:33;;;;;;;3.60;1.38;;;16.50;90.10;;;;;;5035425;28;20046;-83
2022/09/04 01:22:54;;;;;;;4.47;1.60;;;16.50;90.20;;;;;;5034569;28;20048;-82
2022/09/04 01:25:59;;;;;;;3.72;1.50;;;16.40;90.60;;;;;;5034123;28;20184;-82
2022/09/04 01:29:12;;;;;;;5.85;1.45;;;16.40;90.40;;;;;;5033896;28;20049;-82
2022/09/04 01:32:18;;;;;;;5.32;1.77;;;16.40;90.70;;;;;;5016595;28;20409;-82
2022/09/04 01:35:07;;;;;;;4.88;1.35;;;16.30;90.80;;;;;;5034815;28;20118;-80
2022/09/04 01:38:08;;;;;;;5.07;1.40;;;16.30;90.70;;;;;;5014849;28;20056;-80
2022/09/04 01:41:00;;;;;;;4.13;1.33;;;16.30;90.80;;;;;;5033483;28;20409;-83
2022/09/04 01:43:47;;;;;;;6.63;1.55;;;16.30;90.90;;;;;;5033649;28;20064;-83
2022/09/04 01:46:42;;;;;;;6.00;1.55;;;16.30;91.00;;;;;;5033031;28;20085;-81
2022/09/04 01:49:48;;;;;;;6.00;1.88;;;16.20;91.20;;;;;;5032865;28;20057;-83
2022/09/04 01:52:40;;;;;;;7.22;1.45;;;16.20;91.20;;;;;;5032840;28;20045;-86
2022/09/04 01:55:32;;;;;;;3.70;1.33;;;16.20;91.30;;;;;;5032887;28;20501;-81
2022/09/04 01:58:28;;;;;;;4.22;1.45;;;16.20;91.30;;;;;;5033744;28;20049;-83
2022/09/04 02:01:37;;;;;;;2.83;1.60;;;16.20;91.50;;;;;;5035437;28;20171;-80
2022/09/04 02:05:00;;;;;;;4.38;1.80;;;16.10;91.50;;;;;;5015355;28;20045;-82
2022/09/04 02:07:51;;;;;;;4.35;1.48;;;16.10;91.80;;;;;;5031899;28;20046;-81
2022/09/04 02:11:25;;;;;;;3.75;1.13;;;16.10;91.70;;;;;;5013897;28;20115;-81
2022/09/04 02:14:22;;;;;;;3.10;1.50;;;16.10;91.90;;;;;;4960447;28;20132;-81
2022/09/04 02:17:17;;;;;;;7.65;1.83;;;16.00;92.00;;;;;;5033252;28;20049;-81
2022/09/04 02:20:15;;;;;;;;;;;16.00;92.00;;;;;;5033968;28;20519;-82
2022/09/04 02:23:25;;;;;;;6.55;1.65;;;15.90;92.10;;;;;;5032278;28;19932;-82
2022/09/04 02:26:22;;;;;;;3.63;1.40;;;15.90;92.20;;;;;;5031201;28;20468;-81
2022/09/04 02:29:32;;;;;;;6.57;1.95;;;15.90;92.10;;;;;;5011387;28;20050;-80
2022/09/04 02:32:24;;;;;;;3.38;1.38;;;15.90;92.60;;;;;;5012524;28;20077;-81
2022/09/04 02:35:20;;;;;;;7.18;1.83;;;15.80;92.40;;;;;;5013603;28;20437;-81
2022/09/04 02:38:35;;;;;;;4.85;1.50;;;15.80;92.80;;;;;;5012504;28;20068;-80
2022/09/04 02:41:27;;;;;;;5.00;1.55;;;15.80;93.00;;;;;;5010812;28;20049;-80
2022/09/04 02:44:22;;;;;;;5.90;1.70;;;15.70;92.90;;;;;;4997697;28;20413;-81
2022/09/04 02:47:24;;;;;;;5.07;1.50;;;15.70;93.20;;;;;;4997240;28;20060;-81
2022/09/04 02:50:19;;;;;;;5.25;1.85;;;15.60;93.30;;;;;;5012183;28;20851;-80
2022/09/04 02:53:14;;;;;;;;;;;15.60;93.50;;;;;;5012467;28;20104;-79
2022/09/04 02:56:21;;;;;;;4.47;1.60;;;15.60;93.80;;;;;;5012299;28;19932;-81
2022/09/04 02:59:31;;;;;;;5.07;1.58;;;15.50;93.70;;;;;;5011106;28;20473;-80
2022/09/04 03:02:27;;;;;;;3.60;1.55;;;15.50;94.10;;;;;;5011920;28;20050;-80
2022/09/04 03:05:27;;;;;;;6.20;2.00;;;15.50;94.00;;;;;;5011830;28;20107;-81
2022/09/04 03:08:16;;;;;;;4.38;1.67;;;15.50;94.10;;;;;;5011189;28;20061;-78
2022/09/04 03:11:13;;;;;;;6.70;1.90;;;15.50;94.20;;;;;;5011103;28;20061;-79
2022/09/04 03:14:23;;;;;;;5.38;1.42;;;15.50;94.50;;;;;;5012149;28;20081;-80
2022/09/04 03:17:45;;;;;;;4.43;2.17;;;15.50;94.40;;;;;;5011374;28;20129;-81
2022/09/04 03:20:40;;;;;;;5.38;1.80;;;15.40;94.60;;;;;;4998030;28;20387;-80
2022/09/04 03:23:34;;;;;;;9.43;2.00;;;15.40;94.60;;;;;;5009992;28;20538;-81
2022/09/04 03:26:26;;;;;;;4.05;1.50;;;15.40;94.80;;;;;;5012088;28;20398;-81
2022/09/04 03:29:24;;;;;;;4.30;1.83;;;15.40;94.80;;;;;;5009018;28;20061;-80
2022/09/04 03:32:26;;;;;;;5.93;1.70;;;15.40;94.90;;;;;;4996624;28;20052;-78
2022/09/04 03:35:34;;;;;;;5.47;1.50;;;15.30;95.00;;;;;;5009967;28;20054;-79
2022/09/04 03:38:38;;;;;;;4.65;1.85;;;15.30;95.10;;;;;;5010524;28;20137;-80
2022/09/04 03:41:34;;;;;;;3.60;1.40;;;15.20;95.20;;;;;;5010616;28;20136;-81
2022/09/04 03:44:58;;;;;;;6.00;2.08;;;15.20;95.50;;;;;;5011372;28;20049;-81
2022/09/04 03:47:46;;;;;;;3.53;1.60;;;15.20;95.80;;;;;;4990571;28;20086;-80
2022/09/04 03:50:57;;;;;;;4.70;1.80;;;15.10;95.60;;;;;;5010184;28;20524;-83
2022/09/04 03:53:49;;;;;;;5.18;1.80;;;15.10;95.70;;;;;;5010470;28;20061;-81
2022/09/04 03:56:35;;;;;;;5.72;1.55;;;15.10;95.80;;;;;;5012907;28;20050;-81
2022/09/04 03:59:45;;;;;;;7.35;1.45;;;15.10;95.70;;;;;;5010855;28;20453;-82
2022/09/04 04:02:37;;;;;;;4.32;1.70;;;15.10;95.90;;;;;;5008860;28;20049;-82
2022/09/04 04:05:43;;;;;;;4.95;2.15;;;15.00;96.00;;;;;;5010910;28;20064;-79
2022/09/04 04:08:41;;;;;;;7.68;1.90;;;15.00;96.10;;;;;;5011226;28;20409;-80
2022/09/04 04:11:59;;;;;;;6.40;2.30;;;14.90;96.40;;;;;;5011992;28;20058;-79
2022/09/04 04:15:08;;;;;;;6.22;1.70;;;14.90;96.60;;;;;;5011074;28;20053;-78
2022/09/04 04:18:13;;;;;;;7.88;2.35;;;14.90;96.80;;;;;;4995514;28;20046;-79
2022/09/04 04:20:59;;;;;;;3.50;1.80;;;14.80;96.90;;;;;;5011380;28;20105;-80
2022/09/04 04:24:06;;;;;;;7.15;1.95;;;14.80;97.00;;;;;;5012434;28;20042;-80
2022/09/04 04:27:13;;;;;;;7.30;1.75;;;14.80;97.30;;;;;;5012463;28;20057;-80
2022/09/04 04:30:04;;;;;;;8.35;1.95;;;14.80;97.30;;;;;;5012053;28;20064;-80
2022/09/04 04:33:13;;;;;;;5.70;1.58;;;14.80;97.30;;;;;;5012686;28;20130;-81
2022/09/04 04:36:14;;;;;;;5.72;1.80;;;14.80;97.30;;;;;;5010555;28;20054;-81
2022/09/04 04:39:08;;;;;;;15.07;2.45;;;14.80;97.20;;;;;;5011385;28;20048;-80
2022/09/04 04:42:19;;;;;;;3.90;2.00;;;14.80;97.20;;;;;;5009793;28;20446;-79
2022/09/04 04:48:43;;;;;;;4.75;1.95;;;14.80;97.20;;;;;;5014427;28;20561;-82
2022/09/04 04:52:04;;;;;;;6.78;1.75;;;14.80;97.20;;;;;;5012594;28;20096;-81
2022/09/04 04:55:09;;;;;;;7.10;2.00;;;14.80;97.50;;;;;;5013899;28;20088;-81
2022/09/04 04:58:04;;;;;;;8.30;2.00;;;14.80;97.40;;;;;;5013516;28;20371;-81
2022/09/04 05:01:05;;;;;;;;;;;14.80;97.60;;;;;;5012122;28;20297;-81
2022/09/04 05:04:06;;;;;;;6.35;2.17;;;14.70;97.90;;;;;;5014676;28;20377;-81
2022/09/04 05:07:05;;;;;;;7.63;2.13;;;14.70;97.50;;;;;;5012638;28;20064;-81
2022/09/04 05:10:33;;;;;;;5.65;1.92;;;14.70;97.60;;;;;;5013173;28;20141;-82
2022/09/04 05:13:34;;;;;;;4.07;1.85;;;14.70;97.90;;;;;;5012371;28;20049;-78
2022/09/04 05:16:41;;;;;;;7.82;2.15;;;14.70;97.70;;;;;;5012928;28;20085;-80
2022/09/04 05:19:51;;;;;;;7.40;2.03;;;14.70;97.80;;;;;;5012014;28;20050;-80
2022/09/04 05:22:48;;;;;;;4.10;1.85;;;14.70;97.80;;;;;;5013813;28;20053;-81
2022/09/04 05:25:41;;;;;;;5.03;2.00;;;14.70;97.80;;;;;;5012913;28;20692;-79
2022/09/04 05:28:49;;;;;;;7.75;2.40;;;14.80;97.80;;;;;;5020681;28;20053;-82
2022/09/04 05:31:47;;;;;;;5.10;2.20;;;14.80;97.80;;;;;;5033294;28;20144;-79
2022/09/04 05:34:34;;;;;;;5.72;2.42;;;14.90;97.90;;;;;;5015967;28;20056;-78
2022/09/04 05:37:59;;;;;;;6.80;1.85;;;14.90;97.70;;;;;;5018934;28;20517;-81
2022/09/04 05:41:04;;;;;;;6.70;2.03;;;15.10;97.90;;;;;;4997656;28;20060;-79
2022/09/04 05:44:17;;;;;;;6.10;2.00;;;15.10;97.70;;;;;;5033312;28;20110;-80
2022/09/04 05:47:26;;;;;;;5.45;2.00;;;15.10;97.50;;;;;;5033711;28;20072;-80
2022/09/04 05:50:34;;;;;;;5.15;2.17;;;15.20;97.40;;;;;;5033692;28;20107;-82
2022/09/04 05:53:51;;;;;;;4.53;2.38;;;15.30;97.20;;;;;;5033012;28;20052;-82
2022/09/04 05:56:55;;;;;;;5.28;2.17;;;15.40;97.40;;;;;;5035429;28;20053;-81
2022/09/04 05:59:49;;;;;;;7.10;1.90;;;15.40;97.00;;;;;;5036471;28;20408;-79
2022/09/04 06:03:14;;;;;;;8.23;2.20;;;15.50;96.90;;;;;;5034930;28;20088;-82
2022/09/04 06:06:41;;;;;;;7.45;2.08;;;15.60;97.00;;;;;;5032763;28;20510;-81
2022/09/04 06:09:33;;;;;;;5.53;2.10;;;15.60;96.90;;;;;;5015513;28;20104;-80
2022/09/04 06:12:41;;;;;;;5.22;1.90;;;15.70;96.60;;;;;;5035140;28;20111;-84
2022/09/04 06:15:35;;;;;;;6.43;2.35;;;15.70;96.60;;;;;;5037295;28;20057;-85
2022/09/04 06:19:00;;;;;;;4.38;2.00;;;15.70;96.60;;;;;;5006304;28;20045;-83
2022/09/04 06:21:46;;;;;;;6.07;1.88;;;15.80;96.80;;;;;;5021211;28;20083;-82
2022/09/04 06:24:35;;;;;;;5.03;1.73;;;15.80;96.60;;;;;;5041673;28;20065;-81
2022/09/04 06:27:55;;;;;;;6.25;2.30;;;15.80;96.60;;;;;;5037164;28;20056;-83
2022/09/04 06:31:04;;;;;;;5.18;2.30;;;15.90;96.90;;;;;;4996039;28;20042;-85
2022/09/04 06:34:22;;;;;;;5.85;2.00;;;15.90;96.70;;;;;;4992977;28;20126;-84
2022/09/04 06:37:38;;;;;;;5.95;2.50;;;15.90;96.40;;;;;;4993289;28;20046;-82
2022/09/04 06:40:53;;;;;;;4.55;2.35;;;16.00;96.50;;;;;;4993047;28;20042;-81
2022/09/04 06:43:42;;;;;;;4.43;2.10;;;16.10;96.40;;;;;;4992895;28;20051;-82
2022/09/04 06:47:16;;;;;;;6.82;2.42;;;16.20;96.10;;;;;;4992065;28;20046;-80
2022/09/04 06:50:29;;;;;;;4.22;2.10;;;16.50;96.10;;;;;;4917139;29;20102;-82
2022/09/04 06:53:37;;;;;;;4.68;1.83;;;16.60;95.80;;;;;;4933163;29;20048;-81
2022/09/04 06:56:59;;;;;;;6.60;2.30;;;16.70;95.40;;;;;;4989111;28;20046;-82
2022/09/04 07:00:00;;;;;;;5.55;1.98;;;17.00;95.20;;;;;;4970874;28;20510;-81
2022/09/04 07:02:53;;;;;;;6.13;2.33;;;17.20;95.10;;;;;;4992297;28;20077;-81
2022/09/04 07:05:48;;;;;;;4.10;1.80;;;17.40;94.70;;;;;;4992300;28;20074;-83
2022/09/04 07:09:04;;;;;;;4.82;1.80;;;17.60;94.50;;;;;;4990345;28;20081;-81
2022/09/04 07:12:32;;;;;;;6.38;2.38;;;17.80;94.60;;;;;;4991669;28;20054;-81
2022/09/04 07:15:39;;;;;;;3.22;1.85;;;18.00;94.20;;;;;;4992657;28;20486;-81
2022/09/04 07:19:06;;;;;;;6.55;2.00;;;18.20;93.90;;;;;;4992032;28;20512;-81
2022/09/04 07:22:34;;;;;;;6.05;1.90;;;18.30;93.50;;;;;;4931860;29;20063;-81
2022/09/04 07:25:31;;;;;;;6.35;2.05;;;18.20;93.70;;;;;;4994679;28;20046;-81
2022/09/04 07:28:20;;;;;;;5.65;2.17;;;18.30;93.70;;;;;;5006275;28;20063;-81
2022/09/04 07:31:19;;;;;;;4.32;2.22;;;18.40;93.40;;;;;;5013179;28;20061;-81
2022/09/04 07:34:05;;;;;;;5.30;2.35;;;18.50;93.50;;;;;;5030466;28;20053;-82
2022/09/04 07:36:58;;;;;;;7.22;2.25;;;18.80;93.60;;;;;;5016802;28;20140;-81
2022/09/04 07:39:50;;;;;;;6.32;1.95;;;19.00;93.20;;;;;;5030554;28;20490;-81
2022/09/04 07:43:05;;;;;;;5.22;2.10;;;19.10;92.90;;;;;;5014246;28;20045;-82
2022/09/04 07:46:21;;;;;;;6.28;2.47;;;19.10;92.40;;;;;;5015911;28;20042;-82
2022/09/04 07:49:35;;;;;;;5.65;2.17;;;19.30;92.40;;;;;;5030617;28;20049;-83
2022/09/04 07:52:45;;;;;;;6.63;2.00;;;19.40;92.10;;;;;;5020096;28;20042;-85
2022/09/04 07:55:47;;;;;;;8.18;2.47;;;19.60;91.90;;;;;;5012043;28;20049;-83
2022/09/04 07:59:02;;;;;;;5.90;1.95;;;19.60;92.10;;;;;;5012481;28;20050;-82
2022/09/04 08:01:55;;;;;;;7.20;2.35;;;19.60;91.60;;;;;;5013508;28;20493;-80
2022/09/04 08:05:25;;;;;;;5.13;2.10;;;19.70;91.90;;;;;;5013518;28;20057;-82
2022/09/04 08:08:30;;;;;;;6.57;2.20;;;19.90;91.80;;;;;;5013415;28;20049;-81
2022/09/04 08:11:32;;;;;;;6.05;2.05;;;20.00;91.80;;;;;;5031337;28;20531;-83
2022/09/04 08:14:31;;;;;;;5.15;1.88;;;20.20;91.80;;;;;;5033744;28;20053;-81
2022/09/04 08:17:25;;;;;;;5.97;2.33;;;20.40;91.50;;;;;;5034116;28;20056;-84
2022/09/04 08:20:17;;;;;;;4.40;1.88;;;20.60;91.60;;;;;;5032273;28;20451;-83
2022/09/04 08:23:33;;;;;;;4.25;2.17;;;20.70;91.40;;;;;;5014208;28;20050;-81
2022/09/04 08:26:30;;;;;;;4.50;2.20;;;20.90;90.90;;;;;;5030597;28;20041;-85
2022/09/04 08:29:54;;;;;;;5.18;2.20;;;21.00;91.00;;;;;;5015866;28;20057;-85
2022/09/04 08:33:02;;;;;;;6.63;2.03;;;21.40;90.70;;;;;;4999583;28;20501;-82
2022/09/04 08:35:59;;;;;;;9.50;2.25;;;21.60;90.70;;;;;;5012810;28;20054;-86
2022/09/04 08:39:14;;;;;;;4.82;2.17;;;21.90;90.30;;;;;;5030658;28;20173;-82
2022/09/04 08:42:22;;;;;;;4.57;1.95;;;22.10;89.90;;;;;;5012195;28;20081;-84
2022/09/04 08:45:32;;;;;;;5.90;1.90;;;22.10;89.40;;;;;;4999605;28;20055;-81
2022/09/04 08:48:37;;;;;;;5.78;1.98;;;22.30;89.00;;;;;;5030066;28;20049;-81
2022/09/04 08:51:33;;;;;;;7.55;1.92;;;22.40;88.50;;;;;;5011442;28;20050;-81
2022/09/04 08:54:40;;;;;;;6.30;1.90;;;22.60;88.40;;;;;;5030253;28;20132;-84
2022/09/04 08:58:04;;;;;;;5.32;1.77;;;22.70;87.80;;;;;;5031342;28;20461;-81
2022/09/04 09:01:25;;;;;;;3.58;1.50;;;22.90;87.40;;;;;;5031508;28;20389;-81
2022/09/04 09:04:55;;;;;;;6.88;1.88;;;23.10;88.10;;;;;;5028849;28;20543;-82
2022/09/04 09:07:50;;;;;;;4.47;1.77;;;23.20;86.60;;;;;;4994145;28;20372;-82
2022/09/04 09:10:41;;;;;;;5.43;1.73;;;23.50;85.80;;;;;;5013005;28;20049;-84
2022/09/04 09:14:07;;;;;;;4.25;1.77;;;23.60;85.50;;;;;;5030069;28;20488;-82
2022/09/04 09:16:53;;;;;;;;;;;23.90;85.60;;;;;;5029745;28;20053;-82
2022/09/04 09:20:07;;;;;;;5.28;1.88;;;24.20;83.50;;;;;;5030502;28;20318;-82
2022/09/04 09:23:11;;;;;;;6.82;1.95;;;24.30;83.80;;;;;;5012077;28;20115;-81
2022/09/04 09:26:16;;;;;;;7.53;1.70;;;24.50;83.90;;;;;;5030235;28;20108;-83
2022/09/04 09:29:08;;;;;;;4.78;2.00;;;24.90;83.70;;;;;;5030453;28;20332;-82
2022/09/04 09:32:24;;;;;;;3.63;1.52;;;24.80;82.50;;;;;;5033299;28;20049;-85
2022/09/04 09:35:33;;;;;;;4.00;1.65;;;24.70;82.90;;;;;;5005527;28;20045;-84
2022/09/04 09:38:43;;;;;;;4.45;1.50;;;24.80;83.30;;;;;;5037351;28;20167;-82
2022/09/04 09:41:58;;;;;;;3.50;1.30;;;25.00;82.60;;;;;;5016451;28;20046;-82
2022/09/04 09:44:53;;;;;;;3.90;1.55;;;25.30;81.30;;;;;;5018773;28;20049;-79
2022/09/04 09:48:27;;;;;;;3.70;1.50;;;25.40;81.10;;;;;;5019464;28;20045;-81
2022/09/04 09:51:31;;;;;;;5.60;1.73;;;25.60;80.30;;;;;;4934816;29;20052;-80
2022/09/04 09:54:44;;;;;;;3.42;1.13;;;25.60;79.10;;;;;;5001960;28;20135;-81
2022/09/04 09:57:51;;;;;;;3.65;1.30;;;25.70;79.10;;;;;;4979749;28;20056;-84
2022/09/04 10:01:03;;;;;;;3.70;1.10;;;25.90;79.00;;;;;;5032740;28;20049;-80
2022/09/04 10:04:21;;;;;;;3.97;1.50;;;26.20;78.10;;;;;;5016036;28;20045;-81
2022/09/04 10:07:37;;;;;;;3.70;1.50;;;26.40;76.00;;;;;;5002114;28;20648;-81
2022/09/04 10:10:44;;;;;;;5.25;1.50;;;26.60;75.80;;;;;;5032961;28;20049;-80
2022/09/04 10:13:51;;;;;;;4.70;1.60;;;26.70;76.10;;;;;;5032766;28;20041;-81
2022/09/04 10:17:04;;;;;;;5.38;1.50;;;26.90;74.40;;;;;;5033108;28;20187;-83
2022/09/04 10:20:09;;;;;;;7.70;1.50;;;27.00;73.60;;;;;;5014712;28;20054;-87
2022/09/04 10:23:10;;;;;;;6.05;1.58;;;27.00;73.60;;;;;;5032764;28;20045;-82
2022/09/04 10:26:14;;;;;;;5.70;1.20;;;27.00;72.70;;;;;;5032441;28;20042;-83
2022/09/04 10:29:25;;;;;;;4.45;1.40;;;27.00;72.50;;;;;;5032736;28;20049;-84
2022/09/04 10:33:03;;;;;;;4.53;1.30;;;27.20;73.00;;;;;;5020699;28;20064;-83
2022/09/04 10:36:28;;;;;;;2.72;1.23;;;27.40;72.90;;;;;;5031359;28;20045;-82
2022/09/04 10:43:10;;;;;;;4.93;1.33;;;27.30;71.60;;;;;;5032519;28;20056;-82
2022/09/04 10:46:26;;;;;;;4.97;1.42;;;27.40;70.60;;;;;;5032169;28;20171;-82
2022/09/04 10:49:33;;;;;;;2.90;1.38;;;27.40;69.60;;;;;;5033106;28;20401;-82
2022/09/04 10:52:36;;;;;;;4.22;1.38;;;27.40;68.60;;;;;;5015862;28;20107;-80
2022/09/04 10:55:37;;;;;;;4.60;1.50;;;27.60;68.90;;;;;;5033331;28;20081;-82
2022/09/04 10:58:43;;;;;;;5.18;1.20;;;27.60;68.40;;;;;;5015192;28;20136;-82
2022/09/04 11:01:53;;;;;;;4.43;0.98;;;27.90;68.70;;;;;;5033873;28;20505;-81
2022/09/04 11:05:17;;;;;;;4.35;1.23;;;28.20;68.30;;;;;;5033504;28;20072;-81
2022/09/04 11:08:37;;;;;;;3.78;1.30;;;28.30;66.40;;;;;;5018327;28;20054;-82
2022/09/04 11:11:43;;;;;;;4.18;1.35;;;28.60;68.00;;;;;;5015813;28;20091;-81
2022/09/04 11:15:02;;;;;;;6.32;1.10;;;28.80;66.10;;;;;;5032936;28;20516;-82
2022/09/04 11:18:18;;;;;;;3.45;1.02;;;29.00;65.50;;;;;;5033365;28;20076;-87
2022/09/04 11:21:20;;;;;;;4.20;1.42;;;29.20;65.20;;;;;;5033783;28;20053;-83
2022/09/04 11:24:21;;;;;;;3.47;1.25;;;29.30;64.80;;;;;;5033532;28;20098;-80
2022/09/04 11:27:19;;;;;;;2.55;1.08;;;29.70;63.70;;;;;;5014998;28;20053;-80
2022/09/04 11:30:12;;;;;;;3.45;1.13;;;29.60;62.30;;;;;;5002364;28;20045;-84
2022/09/04 11:33:37;;;;;;;5.32;1.08;;;29.60;61.90;;;;;;5034637;28;20106;-81
2022/09/04 11:36:52;;;;;;;5.97;1.25;;;29.60;61.30;;;;;;5015800;28;20064;-80
2022/09/04 11:39:53;;;;;;;3.47;1.25;;;29.60;61.40;;;;;;5018253;28;20052;-82
2022/09/04 11:43:12;;;;;;;3.58;1.38;;;29.90;63.20;;;;;;5035528;28;20045;-81
2022/09/04 11:46:04;;;;;;;2.85;1.10;;;30.10;60.40;;;;;;5036864;28;20076;-81
2022/09/04 11:49:30;;;;;;;7.18;1.65;;;30.30;60.50;;;;;;5016543;28;20639;-81
2022/09/04 11:52:27;;;;;;;;;;;30.50;59.60;;;;;;5019567;28;20057;-81
2022/09/04 11:55:27;;;;;;;2.92;1.10;;;30.60;58.80;;;;;;5033398;28;19925;-81
2022/09/04 11:58:55;;;;;;;3.15;1.10;;;30.60;58.70;;;;;;5034706;28;20045;-82
2022/09/04 12:01:56;;;;;;;6.03;1.30;;;30.80;59.10;;;;;;5037216;28;20493;-81
2022/09/04 12:05:01;;;;;;;5.32;1.30;;;31.10;58.20;;;;;;5036422;28;20114;-87
2022/09/04 12:07:50;;;;;;;;;;;31.20;59.00;;;;;;5036441;28;20049;-85
2022/09/04 12:11:22;;;;;;;3.70;1.33;;;31.60;57.70;;;;;;5014179;28;19925;-81
2022/09/04 12:14:34;;;;;;;3.05;1.30;;;31.60;56.60;;;;;;5013438;28;20144;-80
2022/09/04 12:17:32;;;;;;;3.85;1.10;;;31.90;58.20;;;;;;5032703;28;20595;-80
2022/09/04 12:20:36;;;;;;;3.20;1.00;;;31.90;57.30;;;;;;5032262;28;20053;-83
2022/09/04 12:23:50;;;;;;;3.85;1.52;;;32.00;56.80;;;;;;5022903;28;20052;-89
2022/09/04 12:26:52;;;;;;;2.85;1.30;;;32.20;56.50;;;;;;5021592;28;20046;-96
2022/09/04 12:30:15;;;;;;;4.93;1.30;;;32.80;55.20;;;;;;5033011;28;20090;-85
2022/09/04 12:33:24;;;;;;;4.82;1.35;;;32.40;53.00;;;;;;5000627;28;20152;-86
2022/09/04 12:36:58;;;;;;;4.32;1.40;;;32.30;55.30;;;;;;5014060;28;20050;-82
2022/09/04 12:40:11;;;;;;;3.25;1.15;;;32.90;54.70;;;;;;5013677;28;20076;-87
2022/09/04 12:43:23;;;;;;;2.80;1.05;;;33.50;53.90;;;;;;5017045;28;20093;-82
2022/09/04 12:46:28;;;;;;;4.10;1.10;;;34.30;53.40;;;;;;5031577;28;20045;-81
2022/09/04 12:49:26;;;;;;;5.03;1.38;;;34.40;51.10;;;;;;5017483;28;20543;-81
2022/09/04 12:52:50;;;;;;;3.70;1.30;;;34.30;52.70;;;;;;5032262;28;20056;-83
2022/09/04 12:55:36;;;;;;;4.65;1.67;;;34.60;50.30;;;;;;5033028;28;20053;-81
2022/09/04 12:58:58;;;;;;;4.50;1.40;;;34.70;51.40;;;;;;5014489;28;20056;-82
2022/09/04 13:01:53;;;;;;;3.83;1.20;;;34.50;51.30;;;;;;5017130;28;20050;-82
2022/09/04 13:04:54;;;;;;;3.60;1.20;;;34.90;50.90;;;;;;5015520;28;20064;-83
2022/09/04 13:08:17;;;;;;;2.85;1.20;;;35.30;50.10;;;;;;5006516;28;20045;-86
2022/09/04 13:11:18;;;;;;;3.15;1.00;;;35.80;49.80;;;;;;5038089;28;20056;-82
2022/09/04 13:14:26;;;;;;;2.80;1.20;;;36.10;49.50;;;;;;5034171;28;20417;-82
2022/09/04 13:17:47;;;;;;;3.55;1.48;;;36.80;48.90;;;;;;5035394;28;20240;-84
2022/09/04 13:20:45;;;;;;;5.32;1.20;;;37.00;46.80;;;;;;5011989;28;20064;-81
2022/09/04 13:23:37;;;;;;;5.13;1.50;;;37.90;46.60;;;;;;5016477;28;20064;-82
2022/09/04 13:26:55;;;;;;;3.38;1.00;;;38.00;46.40;;;;;;5015440;28;20057;-81
2022/09/04 13:30:04;;;;;;;4.78;1.33;;;38.30;46.10;;;;;;4993670;28;20046;-84
2022/09/04 13:33:17;;;;;;;3.08;1.38;;;38.20;45.30;;;;;;5034109;28;20052;-82
2022/09/04 13:36:35;;;;;;;3.72;1.50;;;37.80;45.10;;;;;;5017194;28;20058;-85
2022/09/04 13:39:48;;;;;;;3.20;1.52;;;37.30;46.10;;;;;;5018841;28;20049;-88
2022/09/04 13:43:11;;;;;;;4.68;1.40;;;37.40;44.80;;;;;;5041276;28;20108;-80
2022/09/04 13:46:04;;;;;;;6.53;1.48;;;37.50;44.70;;;;;;5023869;28;20050;-85
2022/09/04 13:49:13;;;;;;;3.58;1.40;;;37.70;44.80;;;;;;5037253;28;20057;-84
2022/09/04 13:52:16;;;;;;;4.93;1.42;;;37.90;44.90;;;;;;5000235;28;20050;-84
2022/09/04 13:55:13;;;;;;;3.22;1.20;;;38.10;44.30;;;;;;5009716;28;20052;-86
2022/09/04 13:58:18;;;;;;;5.45;1.20;;;38.50;44.00;;;;;;5019597;28;20053;-84
2022/09/04 14:01:14;;;;;;;4.53;1.25;;;38.60;43.30;;;;;;5040512;28;20140;-81
2022/09/04 14:04:07;;;;;;;4.63;1.38;;;38.60;42.60;;;;;;5036755;28;20048;-82
2022/09/04 14:07:05;;;;;;;4.57;1.23;;;38.40;42.60;;;;;;5039315;28;20060;-88
2022/09/04 14:09:56;;;;;;;6.50;1.75;;;38.00;42.60;;;;;;5021552;28;20053;-95
2022/09/04 14:13:13;;;;;;;5.63;1.10;;;37.90;43.60;;;;;;5026969;28;20081;-83
2022/09/04 14:16:08;;;;;;;3.35;1.33;;;38.00;43.50;;;;;;5022730;28;20053;-88
2022/09/04 14:19:13;;;;;;;3.92;1.60;;;37.70;43.10;;;;;;5031119;28;20067;-89
2022/09/04 14:22:06;;;;;;;3.72;1.52;;;37.70;42.50;;;;;;5021009;28;20064;-84
2022/09/04 14:25:09;;;;;;;6.07;1.33;;;37.80;43.90;;;;;;5018692;28;20497;-94
2022/09/04 14:28:12;;;;;;;2.63;1.20;;;37.90;43.10;;;;;;5037104;28;20046;-82
2022/09/04 14:31:10;;;;;;;4.93;0.95;;;37.80;43.20;;;;;;5018809;28;20111;-85
2022/09/04 14:34:26;;;;;;;2.65;1.27;;;37.70;43.80;;;;;;5038509;28;20059;-83
2022/09/04 14:37:36;;;;;;;4.00;1.30;;;37.80;43.00;;;;;;5037995;28;20080;-83
2022/09/04 14:40:33;;;;;;;3.65;1.30;;;37.50;42.20;;;;;;5038858;28;20064;-84
2022/09/04 14:43:39;;;;;;;4.00;1.40;;;37.30;42.70;;;;;;5037126;28;20045;-85
2022/09/04 14:46:46;;;;;;;5.07;1.50;;;37.40;42.90;;;;;;5019806;28;20132;-84
2022/09/04 14:49:40;;;;;;;3.97;1.42;;;37.20;41.90;;;;;;5020546;28;20398;-81
2022/09/04 14:52:28;;;;;;;5.72;1.30;;;37.40;42.80;;;;;;5038196;28;20055;-85
2022/09/04 14:55:38;;;;;;;3.90;1.10;;;37.60;43.00;;;;;;5034673;28;20045;-79
2022/09/04 14:58:31;;;;;;;4.07;1.20;;;37.60;41.80;;;;;;5031635;28;20037;-86
2022/09/04 15:01:23;;;;;;;6.37;1.67;;;37.70;42.70;;;;;;5015078;28;20041;-86
2022/09/04 15:04:17;;;;;;;5.13;1.63;;;37.50;42.30;;;;;;5032685;28;20152;-81
2022/09/04 15:07:31;;;;;;;4.13;1.10;;;37.70;42.70;;;;;;5032362;28;20128;-83
2022/09/04 15:10:23;;;;;;;2.50;0.97;;;37.80;41.60;;;;;;5033560;28;20041;-82
2022/09/04 15:13:39;;;;;;;6.20;1.67;;;37.90;42.00;;;;;;5033249;28;20295;-82
2022/09/04 15:16:39;;;;;;;3.90;1.25;;;38.50;41.80;;;;;;5027825;28;20137;-81
2022/09/04 15:19:47;;;;;;;2.55;1.10;;;38.60;41.60;;;;;;5014383;28;20083;-85
2022/09/04 15:22:40;;;;;;;4.30;1.30;;;38.70;40.70;;;;;;5032668;28;20502;-83
2022/09/04 15:25:39;;;;;;;4.68;1.08;;;39.30;41.10;;;;;;5013996;28;20046;-82
2022/09/04 15:28:46;;;;;;;5.38;1.33;;;39.90;40.80;;;;;;5011740;28;20049;-82
2022/09/04 15:31:38;;;;;;;4.78;1.30;;;40.20;40.00;;;;;;5009374;28;20054;-81
2022/09/04 15:34:26;;;;;;;4.97;1.08;;;40.20;39.90;;;;;;5011775;28;20050;-85
2022/09/04 15:37:15;;;;;;;3.95;1.10;;;40.10;39.60;;;;;;5011618;28;20061;-83
2022/09/04 15:40:29;;;;;;;7.22;1.50;;;39.90;39.30;;;;;;5011280;28;20045;-85
2022/09/04 15:43:15;;;;;;;3.60;1.35;;;39.20;39.00;;;;;;5012569;28;20140;-85
2022/09/04 15:46:08;;;;;;;3.33;1.30;;;38.40;39.80;;;;;;5014662;28;20151;-82
2022/09/04 15:49:34;;;;;;;3.70;1.45;;;37.90;41.10;;;;;;5012818;28;20149;-83
2022/09/04 15:52:42;;;;;;;3.25;1.33;;;37.60;42.90;;;;;;5011302;28;20498;-87
2022/09/04 15:55:36;;;;;;;3.38;1.27;;;37.10;43.60;;;;;;5011662;28;20045;-84
2022/09/04 15:58:28;;;;;;;4.85;1.30;;;37.10;44.80;;;;;;5011483;28;20049;-85
2022/09/04 16:01:29;;;;;;;4.85;1.60;;;36.60;44.10;;;;;;5009384;28;20064;-82
2022/09/04 16:04:36;;;;;;;2.92;1.25;;;36.00;45.40;;;;;;5010642;28;20053;-82
2022/09/04 16:07:45;;;;;;;3.13;1.17;;;35.00;46.10;;;;;;5012065;28;20050;-85
2022/09/04 16:11:01;;;;;;;4.22;1.33;;;34.10;47.20;;;;;;5012269;28;20045;-85